Time;durP1;ratioP1;P1;durP2;ratioP2;P2;SDS_P1;SDS_P2;PMS_P1;PMS_P2;Temp;Humidity;BMP_temperature;BMP_pressure;BME280_temperature;BME280_humidity;BME280_pressure;Samples;Min_cycle;Max_cycle;Signal;HPM_P1;HPM_P2
2021/10/16 00:02:20;;;;;;;10.80;7.93;;;;;;;;;;5033456;28;20406;-66
2021/10/16 00:04:46;;;;;;;11.63;8.63;;;;;;;;;;5033367;28;20406;-66
2021/10/16 00:07:12;;;;;;;14.20;7.67;;;;;;;;;;5033009;28;20899;-66
2021/10/16 00:09:38;;;;;;;8.93;7.80;;;;;;;;;;5032977;28;20412;-66
2021/10/16 00:12:05;;;;;;;9.87;8.10;;;;;;;;;;5032684;28;20431;-65
2021/10/16 00:14:31;;;;;;;10.13;8.00;;;;;;;;;;5033116;28;20785;-65
2021/10/16 00:16:57;;;;;;;12.10;8.20;;;;;;;;;;5032689;28;20519;-65
2021/10/16 00:19:24;;;;;;;13.43;8.20;;;;;;;;;;5033036;28;20807;-65
2021/10/16 00:21:50;;;;;;;10.80;8.13;;;;;;;;;;5032843;28;20422;-65
2021/10/16 00:24:16;;;;;;;14.83;8.23;;;;;;;;;;5033109;28;20985;-66
2021/10/16 00:26:42;;;;;;;10.67;8.30;;;;;;;;;;5032671;28;20409;-66
2021/10/16 00:29:08;;;;;;;9.83;7.67;;;;;;;;;;5032930;28;20407;-65
2021/10/16 00:31:34;;;;;;;9.87;8.50;;;;;;;;;;5033137;28;20457;-66
2021/10/16 00:34:00;;;;;;;10.80;7.87;;;;;;;;;;5032699;28;20775;-65
2021/10/16 00:36:26;;;;;;;11.23;8.07;;;;;;;;;;5044914;28;20973;-65
2021/10/16 00:38:52;;;;;;;12.10;8.33;;;;;;;;;;5052445;28;20905;-65
2021/10/16 00:41:19;;;;;;;9.97;8.50;;;;;;;;;;5055795;28;20444;-65
2021/10/16 00:43:45;;;;;;;10.97;8.30;;;;;;;;;;5056369;28;20894;-65
2021/10/16 00:46:11;;;;;;;12.00;8.50;;;;;;;;;;5056451;28;20484;-66
2021/10/16 00:48:37;;;;;;;8.73;7.70;;;;;;;;;;5057101;28;20410;-65
2021/10/16 00:51:03;;;;;;;11.73;8.43;;;;;;;;;;5056460;28;20761;-65
2021/10/16 00:53:29;;;;;;;12.70;8.73;;;;;;;;;;5056289;28;20878;-66
2021/10/16 00:55:55;;;;;;;10.90;7.20;;;;;;;;;;5056105;28;20952;-66
2021/10/16 00:58:23;;;;;;;9.70;7.33;;;;;;;;;;5056320;28;20416;-66
2021/10/16 01:00:49;;;;;;;8.93;7.40;;;;;;;;;;5056363;28;20413;-66
2021/10/16 01:03:15;;;;;;;10.30;8.00;;;;;;;;;;5056265;28;20409;-66
2021/10/16 01:05:41;;;;;;;10.40;7.83;;;;;;;;;;5055982;28;20455;-66
2021/10/16 01:08:11;;;;;;;10.00;8.83;;;;;;;;;;5056022;28;20463;-66
2021/10/16 01:10:37;;;;;;;11.90;8.97;;;;;;;;;;5055801;28;20505;-66
2021/10/16 01:13:03;;;;;;;11.73;8.30;;;;;;;;;;5056237;28;20398;-66
2021/10/16 01:15:29;;;;;;;9.20;8.20;;;;;;;;;;5056169;28;20401;-66
2021/10/16 01:17:55;;;;;;;12.27;9.40;;;;;;;;;;5055962;28;20449;-66
2021/10/16 01:20:25;;;;;;;13.27;9.43;;;;;;;;;;5055858;28;20421;-66
2021/10/16 01:22:52;;;;;;;15.80;10.97;;;;;;;;;;5056019;28;20401;-65
2021/10/16 01:25:20;;;;;;;12.70;9.07;;;;;;;;;;5055660;28;20413;-66
2021/10/16 01:27:46;;;;;;;15.40;10.00;;;;;;;;;;5037625;28;20471;-66
2021/10/16 01:30:14;;;;;;;12.47;10.57;;;;;;;;;;5055425;28;20782;-66
2021/10/16 01:32:41;;;;;;;16.90;12.07;;;;;;;;;;5055814;28;20488;-66
2021/10/16 01:35:08;;;;;;;15.57;10.57;;;;;;;;;;5055414;28;20424;-66
2021/10/16 01:37:34;;;;;;;12.33;10.17;;;;;;;;;;5045026;28;20458;-65
2021/10/16 01:40:01;;;;;;;14.90;11.13;;;;;;;;;;5035543;28;20403;-65
2021/10/16 01:42:27;;;;;;;11.50;9.50;;;;;;;;;;5035462;28;20759;-65
2021/10/16 01:44:53;;;;;;;14.17;9.90;;;;;;;;;;5035455;28;20426;-66
2021/10/16 01:47:19;;;;;;;10.70;9.60;;;;;;;;;;5035656;28;20414;-65
2021/10/16 01:49:45;;;;;;;14.90;9.20;;;;;;;;;;5046557;28;20436;-65
2021/10/16 01:52:11;;;;;;;14.30;9.80;;;;;;;;;;5054116;28;20434;-66
2021/10/16 01:54:37;;;;;;;15.30;11.10;;;;;;;;;;5055149;28;20410;-66
2021/10/16 01:57:03;;;;;;;11.50;9.40;;;;;;;;;;5055180;28;20492;-66
2021/10/16 01:59:29;;;;;;;15.73;10.90;;;;;;;;;;5054904;28;20397;-65
2021/10/16 02:01:55;;;;;;;15.07;10.30;;;;;;;;;;5054925;28;20507;-65
2021/10/16 02:04:22;;;;;;;14.30;10.23;;;;;;;;;;5055029;28;20405;-65
2021/10/16 02:06:49;;;;;;;13.63;10.03;;;;;;;;;;5055190;28;20464;-65
2021/10/16 02:09:15;;;;;;;14.37;10.10;;;;;;;;;;5054793;28;20417;-65
2021/10/16 02:11:41;;;;;;;13.73;9.57;;;;;;;;;;5054866;28;20425;-66
2021/10/16 02:14:07;;;;;;;12.70;10.20;;;;;;;;;;5054817;28;20406;-65
2021/10/16 02:16:34;;;;;;;14.90;10.73;;;;;;;;;;5054650;28;20459;-65
2021/10/16 02:19:00;;;;;;;20.93;11.33;;;;;;;;;;5054586;28;20401;-65
2021/10/16 02:21:27;;;;;;;14.03;10.87;;;;;;;;;;5054411;28;20496;-65
2021/10/16 02:23:53;;;;;;;12.17;10.20;;;;;;;;;;5054487;28;20398;-65
2021/10/16 02:26:19;;;;;;;13.73;9.70;;;;;;;;;;5054308;28;20447;-65
2021/10/16 02:28:45;;;;;;;13.63;11.10;;;;;;;;;;5054283;28;20497;-67
2021/10/16 02:31:11;;;;;;;13.00;10.23;;;;;;;;;;5054168;28;20887;-66
2021/10/16 02:33:37;;;;;;;15.50;10.73;;;;;;;;;;5054532;28;20428;-65
2021/10/16 02:36:04;;;;;;;14.27;10.57;;;;;;;;;;5042665;28;20838;-66
2021/10/16 02:38:30;;;;;;;13.60;10.20;;;;;;;;;;5034588;28;20448;-66
2021/10/16 02:40:56;;;;;;;15.30;11.27;;;;;;;;;;5034221;28;20419;-67
2021/10/16 02:43:22;;;;;;;15.73;12.47;;;;;;;;;;5034180;28;20437;-65
2021/10/16 02:45:48;;;;;;;14.07;10.90;;;;;;;;;;5034200;28;20406;-65
2021/10/16 02:48:14;;;;;;;15.30;11.20;;;;;;;;;;5034125;28;20398;-66
2021/10/16 02:50:40;;;;;;;14.40;10.77;;;;;;;;;;5034173;28;20768;-66
2021/10/16 02:53:06;;;;;;;13.50;10.70;;;;;;;;;;5034062;28;20410;-65
2021/10/16 02:55:32;;;;;;;12.07;9.50;;;;;;;;;;5034104;28;20407;-65
2021/10/16 02:57:58;;;;;;;15.50;11.33;;;;;;;;;;5033809;28;20552;-66
2021/10/16 03:00:26;;;;;;;14.30;10.97;;;;;;;;;;5034177;28;20418;-66
2021/10/16 03:02:52;;;;;;;16.10;11.10;;;;;;;;;;5033720;28;20941;-66
2021/10/16 03:05:18;;;;;;;17.50;10.60;;;;;;;;;;5034121;28;20426;-66
2021/10/16 03:07:44;;;;;;;13.40;9.83;;;;;;;;;;5033838;28;20403;-66
2021/10/16 03:10:10;;;;;;;11.63;10.10;;;;;;;;;;5033700;28;20437;-66
2021/10/16 03:12:36;;;;;;;12.00;9.10;;;;;;;;;;5033754;28;20407;-66
2021/10/16 03:15:03;;;;;;;14.43;8.73;;;;;;;;;;5033870;28;20411;-65
2021/10/16 03:17:29;;;;;;;11.47;9.47;;;;;;;;;;5015830;28;20450;-65
2021/10/16 03:19:55;;;;;;;11.10;8.43;;;;;;;;;;5035425;28;20429;-66
2021/10/16 03:22:21;;;;;;;10.47;8.93;;;;;;;;;;5053017;28;20407;-65
2021/10/16 03:24:47;;;;;;;11.13;9.03;;;;;;;;;;5053593;28;20426;-65
2021/10/16 03:27:13;;;;;;;12.27;8.90;;;;;;;;;;5053551;28;20422;-66
2021/10/16 03:29:39;;;;;;;11.00;8.17;;;;;;;;;;5053587;28;20428;-66
2021/10/16 03:32:05;;;;;;;15.80;8.90;;;;;;;;;;5053155;28;20534;-66
2021/10/16 03:34:31;;;;;;;15.10;9.87;;;;;;;;;;5053505;28;20496;-66
2021/10/16 03:36:57;;;;;;;11.53;8.27;;;;;;;;;;5034324;28;20549;-66
2021/10/16 03:39:23;;;;;;;11.43;8.83;;;;;;;;;;5033396;28;20533;-66
2021/10/16 03:41:49;;;;;;;14.70;9.23;;;;;;;;;;5033282;28;20426;-66
2021/10/16 03:44:15;;;;;;;11.00;8.33;;;;;;;;;;5033441;28;20414;-66
2021/10/16 03:46:42;;;;;;;12.83;9.77;;;;;;;;;;5033032;28;20886;-65
2021/10/16 03:49:08;;;;;;;10.33;9.10;;;;;;;;;;5033258;28;20837;-65
2021/10/16 03:51:34;;;;;;;11.77;8.90;;;;;;;;;;5033045;28;20835;-65
2021/10/16 03:54:01;;;;;;;10.90;8.93;;;;;;;;;;5033030;28;20405;-65
2021/10/16 03:56:27;;;;;;;11.10;9.47;;;;;;;;;;5033025;28;20450;-66
2021/10/16 03:58:53;;;;;;;10.33;8.20;;;;;;;;;;5048692;28;20898;-66
2021/10/16 04:01:20;;;;;;;14.33;9.60;;;;;;;;;;5052775;28;20528;-65
2021/10/16 04:03:46;;;;;;;9.87;8.87;;;;;;;;;;5053167;28;20867;-65
2021/10/16 04:06:13;;;;;;;11.80;9.03;;;;;;;;;;5051455;28;20433;-66
2021/10/16 04:08:39;;;;;;;14.57;8.73;;;;;;;;;;5052973;28;20499;-66
2021/10/16 04:11:05;;;;;;;10.70;8.50;;;;;;;;;;5053305;28;21052;-66
2021/10/16 04:13:31;;;;;;;11.87;9.10;;;;;;;;;;5053071;28;20412;-66
2021/10/16 04:15:57;;;;;;;13.23;10.93;;;;;;;;;;5061806;28;20480;-65
2021/10/16 04:18:23;;;;;;;12.07;10.53;;;;;;;;;;5068694;28;20404;-66
2021/10/16 04:20:49;;;;;;;14.73;12.13;;;;;;;;;;5069916;28;20422;-66
2021/10/16 04:23:15;;;;;;;15.07;10.67;;;;;;;;;;5060295;28;20406;-65
2021/10/16 04:25:41;;;;;;;17.93;12.57;;;;;;;;;;5058538;28;20401;-65
2021/10/16 04:28:07;;;;;;;15.97;12.80;;;;;;;;;;5057173;28;20436;-66
2021/10/16 04:30:33;;;;;;;15.87;11.63;;;;;;;;;;5056929;28;20441;-66
2021/10/16 04:33:00;;;;;;;14.27;11.97;;;;;;;;;;5056886;28;20748;-66
2021/10/16 04:35:26;;;;;;;17.73;11.90;;;;;;;;;;5050366;28;20421;-66
2021/10/16 04:37:52;;;;;;;19.23;13.63;;;;;;;;;;5036886;28;20453;-65
2021/10/16 04:40:21;;;;;;;18.17;11.80;;;;;;;;;;5036548;28;20426;-65
2021/10/16 04:42:49;;;;;;;17.80;12.80;;;;;;;;;;5036870;28;20767;-65
2021/10/16 04:45:15;;;;;;;15.73;12.47;;;;;;;;;;5036574;28;20437;-66
2021/10/16 04:47:41;;;;;;;20.27;12.90;;;;;;;;;;5036411;28;20422;-66
2021/10/16 04:50:08;;;;;;;16.37;13.20;;;;;;;;;;5036653;28;20437;-66
2021/10/16 04:52:34;;;;;;;17.87;13.13;;;;;;;;;;5036847;28;20413;-65
2021/10/16 04:55:00;;;;;;;16.90;13.57;;;;;;;;;;5036779;28;20414;-66
2021/10/16 04:57:27;;;;;;;18.00;13.50;;;;;;;;;;5036132;28;20446;-66
2021/10/16 04:59:53;;;;;;;16.83;12.27;;;;;;;;;;5036165;28;20391;-66
2021/10/16 05:02:19;;;;;;;19.97;13.97;;;;;;;;;;5036314;28;20449;-66
2021/10/16 05:04:45;;;;;;;16.67;12.90;;;;;;;;;;5036551;28;20434;-65
2021/10/16 05:07:11;;;;;;;16.03;13.03;;;;;;;;;;5036193;28;20415;-66
2021/10/16 05:09:37;;;;;;;17.70;12.83;;;;;;;;;;5036465;28;20460;-66
2021/10/16 05:12:03;;;;;;;17.67;13.73;;;;;;;;;;5036340;28;20423;-66
2021/10/16 05:14:29;;;;;;;18.97;12.60;;;;;;;;;;5036267;28;20398;-65
2021/10/16 05:16:55;;;;;;;17.03;12.00;;;;;;;;;;5036077;28;20460;-65
2021/10/16 05:19:21;;;;;;;16.83;12.30;;;;;;;;;;5036210;28;20398;-65
2021/10/16 05:21:47;;;;;;;17.50;12.90;;;;;;;;;;5035923;28;20448;-66
2021/10/16 05:24:13;;;;;;;16.07;13.77;;;;;;;;;;5035904;28;20391;-66
2021/10/16 05:26:40;;;;;;;21.97;13.43;;;;;;;;;;5035496;28;20493;-65
2021/10/16 05:29:06;;;;;;;16.53;13.20;;;;;;;;;;5035821;28;20486;-65
2021/10/16 05:31:32;;;;;;;17.37;12.97;;;;;;;;;;5035562;28;20461;-66
2021/10/16 05:33:58;;;;;;;17.17;13.80;;;;;;;;;;5035641;28;20407;-65
2021/10/16 05:36:24;;;;;;;19.23;13.10;;;;;;;;;;5049539;28;20456;-65
2021/10/16 05:38:50;;;;;;;19.30;12.73;;;;;;;;;;5055532;28;20406;-66
2021/10/16 05:41:17;;;;;;;17.30;13.57;;;;;;;;;;5055416;28;20419;-65
2021/10/16 05:43:43;;;;;;;22.23;14.17;;;;;;;;;;5055521;28;20404;-65
2021/10/16 05:46:09;;;;;;;21.13;13.17;;;;;;;;;;5055480;28;20478;-65
2021/10/16 05:48:35;;;;;;;18.93;13.13;;;;;;;;;;5055751;28;20408;-66
2021/10/16 05:51:01;;;;;;;19.07;14.57;;;;;;;;;;5055320;28;20509;-65
2021/10/16 05:53:27;;;;;;;17.50;13.37;;;;;;;;;;5055268;28;20960;-65
2021/10/16 05:55:54;;;;;;;17.23;13.87;;;;;;;;;;5055172;28;20401;-65
2021/10/16 05:58:20;;;;;;;21.80;14.43;;;;;;;;;;5055043;28;20402;-66
2021/10/16 06:00:46;;;;;;;19.80;14.33;;;;;;;;;;5055399;28;20414;-66
2021/10/16 06:03:12;;;;;;;17.20;14.13;;;;;;;;;;5037161;28;20434;-66
2021/10/16 06:05:38;;;;;;;17.60;14.27;;;;;;;;;;5054857;28;20473;-67
2021/10/16 06:08:04;;;;;;;23.57;14.23;;;;;;;;;;5054890;28;20429;-67
2021/10/16 06:10:31;;;;;;;17.20;13.47;;;;;;;;;;5054534;28;20436;-67
2021/10/16 06:12:57;;;;;;;18.83;13.97;;;;;;;;;;5054814;28;20491;-67
2021/10/16 06:15:23;;;;;;;22.23;15.83;;;;;;;;;;5054976;28;20489;-67
2021/10/16 06:17:49;;;;;;;20.40;14.00;;;;;;;;;;5055011;28;20476;-67
2021/10/16 06:20:15;;;;;;;19.10;14.90;;;;;;;;;;5036608;28;20425;-67
2021/10/16 06:22:42;;;;;;;20.80;14.10;;;;;;;;;;5054788;28;20872;-67
2021/10/16 06:25:08;;;;;;;19.07;14.47;;;;;;;;;;5054402;28;20420;-67
2021/10/16 06:27:35;;;;;;;16.73;13.83;;;;;;;;;;5054831;28;20455;-66
2021/10/16 06:30:01;;;;;;;22.07;15.50;;;;;;;;;;5054330;28;20745;-67
2021/10/16 06:32:27;;;;;;;21.50;13.83;;;;;;;;;;5061565;22;20493;-77
2021/10/16 06:34:53;;;;;;;18.20;14.30;;;;;;;;;;5053976;28;20454;-77
2021/10/16 06:37:19;;;;;;;19.97;15.00;;;;;;;;;;5053667;28;20456;-77
2021/10/16 06:39:45;;;;;;;18.53;12.90;;;;;;;;;;5054120;28;20459;-77
2021/10/16 06:42:11;;;;;;;20.80;15.87;;;;;;;;;;5052627;28;20417;-77
2021/10/16 06:44:37;;;;;;;17.23;12.80;;;;;;;;;;5070995;22;20430;-67
2021/10/16 06:47:03;;;;;;;17.67;13.63;;;;;;;;;;5042971;28;20837;-67
2021/10/16 06:49:30;;;;;;;17.47;12.57;;;;;;;;;;5054019;28;20394;-67
2021/10/16 06:51:56;;;;;;;15.07;12.50;;;;;;;;;;5052127;28;20421;-67
2021/10/16 06:54:22;;;;;;;15.87;13.43;;;;;;;;;;5054147;28;20776;-67
2021/10/16 06:56:48;;;;;;;19.17;13.20;;;;;;;;;;5036930;28;20816;-68
2021/10/16 06:59:15;;;;;;;16.70;12.00;;;;;;;;;;5040368;28;20409;-67
2021/10/16 07:01:41;;;;;;;19.30;12.87;;;;;;;;;;5052235;28;20424;-68
2021/10/16 07:04:07;;;;;;;20.37;14.50;;;;;;;;;;5052080;28;20409;-68
2021/10/16 07:06:33;;;;;;;17.47;13.13;;;;;;;;;;5048678;28;20444;-68
2021/10/16 07:08:59;;;;;;;17.53;12.73;;;;;;;;;;5044749;28;20449;-69
2021/10/16 07:11:25;;;;;;;18.87;13.40;;;;;;;;;;5050026;28;20417;-68
2021/10/16 07:13:51;;;;;;;16.13;12.87;;;;;;;;;;5036978;28;20418;-68
2021/10/16 07:16:18;;;;;;;18.80;12.53;;;;;;;;;;5035816;28;20481;-66
2021/10/16 07:18:44;;;;;;;20.00;14.07;;;;;;;;;;5045324;28;20411;-68
2021/10/16 07:21:10;;;;;;;17.33;13.20;;;;;;;;;;5056126;28;20515;-68
2021/10/16 07:23:36;;;;;;;18.50;13.33;;;;;;;;;;5073393;28;20405;-68
2021/10/16 07:26:02;;;;;;;18.70;13.73;;;;;;;;;;5073365;28;20416;-68
2021/10/16 07:28:28;;;;;;;17.03;13.20;;;;;;;;;;5073523;28;20758;-68
2021/10/16 07:30:54;;;;;;;17.87;12.93;;;;;;;;;;5073717;28;20412;-68
2021/10/16 07:33:21;;;;;;;17.83;11.47;;;;;;;;;;5073329;28;20389;-67
2021/10/16 07:35:47;;;;;;;16.77;12.73;;;;;;;;;;5055046;28;20786;-68
2021/10/16 07:38:14;;;;;;;15.80;12.00;;;;;;;;;;5033227;28;20461;-68
2021/10/16 07:40:41;;;;;;;19.70;13.10;;;;;;;;;;5033346;28;20850;-68
2021/10/16 07:43:08;;;;;;;16.30;12.00;;;;;;;;;;5033405;28;20403;-68
2021/10/16 07:45:34;;;;;;;20.43;14.27;;;;;;;;;;5033137;28;20439;-68
2021/10/16 07:48:00;;;;;;;17.40;14.10;;;;;;;;;;5033075;28;20468;-68
2021/10/16 07:50:26;;;;;;;22.13;14.73;;;;;;;;;;5033197;28;20445;-68
2021/10/16 07:52:52;;;;;;;17.97;14.33;;;;;;;;;;5033153;28;20402;-68
2021/10/16 07:55:18;;;;;;;21.40;15.97;;;;;;;;;;5032890;28;20460;-68
2021/10/16 07:57:44;;;;;;;16.73;13.93;;;;;;;;;;5032940;28;20519;-68
2021/10/16 08:00:10;;;;;;;25.40;14.23;;;;;;;;;;5033163;28;20763;-68
2021/10/16 08:02:36;;;;;;;19.10;14.60;;;;;;;;;;5033029;28;20737;-67
2021/10/16 08:05:02;;;;;;;20.43;14.83;;;;;;;;;;5033111;28;20399;-67
2021/10/16 08:07:29;;;;;;;18.70;14.27;;;;;;;;;;5033084;28;20429;-67
2021/10/16 08:09:55;;;;;;;16.60;12.43;;;;;;;;;;5033227;28;20769;-67
2021/10/16 08:12:21;;;;;;;19.60;13.27;;;;;;;;;;5032907;28;20402;-67
2021/10/16 08:14:47;;;;;;;19.00;13.20;;;;;;;;;;5033271;28;20432;-67
2021/10/16 08:17:13;;;;;;;15.77;12.80;;;;;;;;;;5033168;28;20584;-67
2021/10/16 08:19:39;;;;;;;19.80;13.97;;;;;;;;;;5032920;28;20455;-67
2021/10/16 08:22:08;;;;;;;17.43;14.67;;;;;;;;;;5032805;28;20399;-68
2021/10/16 08:24:34;;;;;;;18.53;13.27;;;;;;;;;;5032575;28;20426;-67
2021/10/16 08:27:00;;;;;;;18.50;13.97;;;;;;;;;;5032305;28;20468;-70
2021/10/16 08:29:26;;;;;;;13.00;10.90;;;;;;;;;;5032652;28;20398;-68
2021/10/16 08:31:52;;;;;;;15.80;13.30;;;;;;;;;;5032553;28;20497;-68
2021/10/16 08:34:18;;;;;;;19.40;15.13;;;;;;;;;;5033307;28;20402;-67
2021/10/16 08:36:44;;;;;;;17.77;14.07;;;;;;;;;;5049361;28;20545;-67
2021/10/16 08:39:10;;;;;;;16.83;11.20;;;;;;;;;;5052720;28;20474;-67
2021/10/16 08:41:37;;;;;;;15.63;11.80;;;;;;;;;;5052557;28;20429;-69
2021/10/16 08:44:03;;;;;;;16.23;12.80;;;;;;;;;;5052783;28;20925;-67
2021/10/16 08:46:30;;;;;;;16.57;12.13;;;;;;;;;;5052191;28;20433;-67
2021/10/16 08:49:01;;;;;;;16.90;12.60;;;;;;;;;;5052499;28;20424;-67
2021/10/16 08:51:27;;;;;;;23.30;15.17;;;;;;;;;;5034544;28;20405;-67
2021/10/16 08:53:53;;;;;;;16.93;13.93;;;;;;;;;;5052467;28;20480;-67
2021/10/16 08:56:23;;;;;;;18.27;14.13;;;;;;;;;;5051899;28;20488;-67
2021/10/16 08:58:49;;;;;;;18.57;13.97;;;;;;;;;;5052068;28;20523;-67
2021/10/16 09:01:15;;;;;;;20.43;13.60;;;;;;;;;;5053941;28;20394;-67
2021/10/16 09:03:50;;;;;;;18.27;13.83;;;;;;;;;;5055805;28;20423;-67
2021/10/16 09:06:33;;;;;;;20.63;15.30;;;;;;;;;;5056120;28;20481;-66
2021/10/16 09:09:03;;;;;;;22.33;15.70;;;;;;;;;;5056070;28;20385;-66
2021/10/16 09:11:44;;;;;;;20.93;15.60;;;;;;;;;;5056409;28;20772;-66
2021/10/16 09:14:14;;;;;;;17.97;14.03;;;;;;;;;;5055746;28;20752;-67
2021/10/16 09:16:43;;;;;;;19.83;14.60;;;;;;;;;;5055771;28;20456;-67
2021/10/16 09:19:18;;;;;;;20.23;15.40;;;;;;;;;;5056090;28;20898;-67
2021/10/16 09:21:44;;;;;;;20.53;16.20;;;;;;;;;;5055982;28;20420;-66
2021/10/16 09:24:13;;;;;;;17.00;14.70;;;;;;;;;;5055816;28;20476;-67
2021/10/16 09:26:41;;;;;;;16.57;13.93;;;;;;;;;;5055627;28;20424;-67
2021/10/16 09:29:08;;;;;;;19.77;13.00;;;;;;;;;;5055464;28;20807;-67
2021/10/16 09:31:41;;;;;;;18.30;14.63;;;;;;;;;;5055558;28;20448;-67
2021/10/16 09:34:08;;;;;;;17.73;12.63;;;;;;;;;;5031051;28;20403;-67
2021/10/16 09:36:34;;;;;;;17.50;13.17;;;;;;;;;;5050853;28;20465;-67
2021/10/16 09:39:01;;;;;;;19.97;12.30;;;;;;;;;;5055227;28;20393;-69
2021/10/16 09:41:33;;;;;;;16.13;11.40;;;;;;;;;;5037254;28;20405;-67
2021/10/16 09:44:00;;;;;;;16.83;13.37;;;;;;;;;;5055409;28;20535;-67
2021/10/16 09:46:26;;;;;;;16.10;12.50;;;;;;;;;;5054933;28;20449;-67
2021/10/16 09:48:53;;;;;;;15.40;12.20;;;;;;;;;;5055185;28;20414;-67
2021/10/16 09:51:19;;;;;;;18.07;12.47;;;;;;;;;;5055042;28;20766;-68
2021/10/16 09:53:46;;;;;;;16.17;11.70;;;;;;;;;;5054880;28;20911;-67
2021/10/16 09:56:13;;;;;;;15.00;11.23;;;;;;;;;;5054660;28;20967;-67
2021/10/16 09:58:40;;;;;;;13.27;11.10;;;;;;;;;;5054806;28;20477;-67
2021/10/16 10:01:07;;;;;;;16.67;12.57;;;;;;;;;;5054756;28;20405;-67
2021/10/16 10:03:34;;;;;;;12.93;11.13;;;;;;;;;;5054870;28;20459;-67
2021/10/16 10:06:00;;;;;;;13.67;10.57;;;;;;;;;;5054653;28;20428;-67
2021/10/16 10:08:26;;;;;;;13.53;11.20;;;;;;;;;;5054829;28;20402;-68
2021/10/16 10:10:52;;;;;;;16.63;11.17;;;;;;;;;;5054856;28;20401;-67
2021/10/16 10:13:19;;;;;;;13.50;11.50;;;;;;;;;;5053560;28;20760;-67
2021/10/16 10:15:45;;;;;;;19.63;11.60;;;;;;;;;;5054339;28;20838;-67
2021/10/16 10:21:00;;;;;;;16.00;11.27;;;;;;;;;;5054886;28;20385;-68
2021/10/16 10:23:26;;;;;;;18.27;12.00;;;;;;;;;;5054556;28;20394;-67
2021/10/16 10:26:11;;;;;;;18.70;10.63;;;;;;;;;;5036870;28;20409;-68
2021/10/16 10:28:57;;;;;;;14.17;11.27;;;;;;;;;;5054370;28;20429;-68
2021/10/16 10:31:42;;;;;;;14.67;11.53;;;;;;;;;;5026354;28;20414;-68
2021/10/16 10:34:12;;;;;;;17.73;11.70;;;;;;;;;;5047128;28;20498;-68
2021/10/16 10:36:44;;;;;;;14.47;11.83;;;;;;;;;;5034377;28;20822;-69
2021/10/16 10:39:28;;;;;;;12.00;9.80;;;;;;;;;;5034282;28;20406;-67
2021/10/16 10:41:54;;;;;;;12.60;11.13;;;;;;;;;;5034140;28;20457;-67
2021/10/16 10:44:39;;;;;;;14.90;10.50;;;;;;;;;;5034217;28;20397;-67
2021/10/16 10:47:24;;;;;;;20.37;11.10;;;;;;;;;;5034106;28;20426;-67
2021/10/16 10:49:50;;;;;;;14.40;10.10;;;;;;;;;;5034057;28;20468;-67
2021/10/16 10:52:17;;;;;;;12.40;9.00;;;;;;;;;;5034206;28;20850;-67
2021/10/16 10:55:03;;;;;;;15.63;9.13;;;;;;;;;;5033722;28;20442;-68
2021/10/16 10:57:42;;;;;;;11.27;8.50;;;;;;;;;;5033653;28;20560;-67
2021/10/16 11:00:10;;;;;;;11.67;8.53;;;;;;;;;;5034371;28;20871;-67
2021/10/16 11:02:36;;;;;;;9.70;8.30;;;;;;;;;;5033946;28;20395;-67
2021/10/16 11:05:03;;;;;;;13.20;8.33;;;;;;;;;;5033827;28;20415;-66
2021/10/16 11:07:39;;;;;;;13.03;8.63;;;;;;;;;;5033594;28;20871;-66
2021/10/16 11:10:06;;;;;;;12.60;9.47;;;;;;;;;;5033916;28;20434;-67
2021/10/16 11:12:37;;;;;;;11.90;8.30;;;;;;;;;;5034008;28;20420;-67
2021/10/16 11:15:04;;;;;;;14.63;8.10;;;;;;;;;;5033463;28;20414;-67
2021/10/16 11:17:42;;;;;;;10.63;8.70;;;;;;;;;;5033286;28;21031;-67
2021/10/16 11:20:09;;;;;;;14.50;8.80;;;;;;;;;;5033283;28;20417;-67
2021/10/16 11:22:40;;;;;;;10.93;8.50;;;;;;;;;;5033618;28;20751;-67
2021/10/16 11:25:06;;;;;;;10.27;8.10;;;;;;;;;;5033151;28;20914;-67
2021/10/16 11:27:32;;;;;;;9.20;7.47;;;;;;;;;;5033439;28;21079;-67
2021/10/16 11:29:59;;;;;;;9.87;7.83;;;;;;;;;;5033167;28;20413;-67
2021/10/16 11:32:25;;;;;;;11.17;7.30;;;;;;;;;;5033488;28;20411;-67
2021/10/16 11:34:59;;;;;;;11.30;8.40;;;;;;;;;;5045983;28;20410;-67
2021/10/16 11:37:36;;;;;;;11.30;8.00;;;;;;;;;;5053118;28;20464;-67
2021/10/16 11:40:03;;;;;;;12.10;9.30;;;;;;;;;;5053398;28;20762;-67
2021/10/16 11:42:29;;;;;;;10.50;8.53;;;;;;;;;;5053122;28;20437;-68
2021/10/16 11:44:55;;;;;;;12.83;8.07;;;;;;;;;;5052975;28;20425;-67
2021/10/16 11:47:21;;;;;;;11.13;8.47;;;;;;;;;;5053018;28;20508;-67
2021/10/16 11:49:48;;;;;;;10.60;8.23;;;;;;;;;;5052976;28;20889;-67
2021/10/16 11:52:21;;;;;;;13.27;10.60;;;;;;;;;;5052911;28;20955;-67
2021/10/16 11:54:47;;;;;;;11.33;8.57;;;;;;;;;;5053078;28;20432;-67
2021/10/16 11:57:24;;;;;;;11.30;8.83;;;;;;;;;;5052734;28;20504;-67
2021/10/16 11:59:50;;;;;;;11.83;10.27;;;;;;;;;;5052979;28;20481;-67
2021/10/16 12:02:32;;;;;;;10.37;7.97;;;;;;;;;;5053038;28;20602;-67
2021/10/16 12:05:09;;;;;;;10.43;7.73;;;;;;;;;;5053222;28;20381;-68
2021/10/16 12:07:35;;;;;;;11.83;8.23;;;;;;;;;;5053149;28;20479;-67
2021/10/16 12:10:19;;;;;;;8.63;6.50;;;;;;;;;;5052817;28;20924;-67
2021/10/16 12:13:03;;;;;;;9.53;7.87;;;;;;;;;;5053411;28;20414;-67
2021/10/16 12:15:40;;;;;;;8.80;6.23;;;;;;;;;;5052929;28;20498;-67
2021/10/16 12:18:06;;;;;;;12.77;7.07;;;;;;;;;;5053013;28;20479;-67
2021/10/16 12:20:45;;;;;;;8.20;6.67;;;;;;;;;;5053165;28;20409;-67
2021/10/16 12:23:11;;;;;;;9.87;6.57;;;;;;;;;;5052828;28;20543;-67
2021/10/16 12:25:45;;;;;;;7.57;6.30;;;;;;;;;;5052742;28;20486;-67
2021/10/16 12:28:11;;;;;;;7.77;5.80;;;;;;;;;;5052725;28;20417;-67
2021/10/16 12:30:37;;;;;;;9.87;5.93;;;;;;;;;;5052607;28;20967;-67
2021/10/16 12:33:11;;;;;;;10.67;6.23;;;;;;;;;;5047628;28;20407;-66
2021/10/16 12:35:37;;;;;;;9.53;6.53;;;;;;;;;;5033712;28;20867;-67
2021/10/16 12:38:04;;;;;;;7.90;6.33;;;;;;;;;;5036819;28;20496;-67
2021/10/16 12:40:36;;;;;;;11.00;6.60;;;;;;;;;;5037310;28;20426;-67
2021/10/16 12:43:02;;;;;;;7.80;6.90;;;;;;;;;;5036868;28;20804;-68
2021/10/16 12:45:38;;;;;;;12.10;7.77;;;;;;;;;;5036368;28;20544;-67
2021/10/16 12:48:28;;;;;;;7.83;6.00;;;;;;;;;;5036221;28;20417;-68
2021/10/16 12:50:58;;;;;;;11.40;8.13;;;;;;;;;;5036404;28;20394;-67
2021/10/16 12:53:25;;;;;;;7.37;6.50;;;;;;;;;;5036578;28;20407;-67
2021/10/16 12:55:51;;;;;;;7.73;6.00;;;;;;;;;;5036103;28;20422;-67
2021/10/16 12:58:18;;;;;;;6.10;5.50;;;;;;;;;;5036022;28;20457;-66
2021/10/16 13:00:51;;;;;;;9.50;6.13;;;;;;;;;;5036415;28;20509;-66
2021/10/16 13:03:17;;;;;;;7.10;5.90;;;;;;;;;;5036159;28;20878;-67
2021/10/16 13:05:44;;;;;;;8.13;6.13;;;;;;;;;;5036470;28;20775;-67
2021/10/16 13:08:11;;;;;;;8.20;5.87;;;;;;;;;;5036073;28;20425;-67
2021/10/16 13:10:37;;;;;;;7.07;6.10;;;;;;;;;;5036147;28;20917;-67
2021/10/16 13:13:07;;;;;;;9.23;5.57;;;;;;;;;;5036249;28;20407;-66
2021/10/16 13:15:35;;;;;;;5.73;5.20;;;;;;;;;;5036321;28;20410;-67
2021/10/16 13:18:01;;;;;;;5.93;4.43;;;;;;;;;;5036155;28;20466;-67
2021/10/16 13:20:27;;;;;;;5.50;4.87;;;;;;;;;;5036044;28;20415;-67
2021/10/16 13:22:53;;;;;;;7.10;5.70;;;;;;;;;;5035809;28;20938;-66
2021/10/16 13:25:19;;;;;;;7.63;6.30;;;;;;;;;;5034878;28;20402;-66
2021/10/16 13:27:46;;;;;;;6.97;5.60;;;;;;;;;;5037034;28;20441;-67
2021/10/16 13:30:17;;;;;;;6.67;5.53;;;;;;;;;;5041003;28;20398;-67
2021/10/16 13:32:44;;;;;;;5.53;4.90;;;;;;;;;;5037363;28;20411;-66
2021/10/16 13:35:10;;;;;;;6.60;5.57;;;;;;;;;;5036583;28;20407;-66
2021/10/16 13:37:36;;;;;;;5.80;5.20;;;;;;;;;;5040545;28;20459;-67
2021/10/16 13:40:03;;;;;;;7.67;5.30;;;;;;;;;;5055491;28;20408;-67
2021/10/16 13:42:29;;;;;;;7.27;4.93;;;;;;;;;;5048286;28;20630;-66
2021/10/16 13:44:55;;;;;;;5.77;5.10;;;;;;;;;;5035115;28;20476;-67
2021/10/16 13:47:23;;;;;;;6.10;5.40;;;;;;;;;;5017361;28;20849;-67
2021/10/16 13:49:49;;;;;;;6.47;5.03;;;;;;;;;;5037284;28;20473;-67
2021/10/16 13:52:15;;;;;;;6.40;5.00;;;;;;;;;;5042606;28;20417;-67
2021/10/16 13:54:41;;;;;;;6.07;5.20;;;;;;;;;;5055214;28;20398;-67
2021/10/16 13:57:07;;;;;;;7.03;5.23;;;;;;;;;;5040808;28;20465;-68
2021/10/16 13:59:33;;;;;;;7.97;6.53;;;;;;;;;;5035266;28;20727;-68
2021/10/16 14:01:59;;;;;;;12.93;5.33;;;;;;;;;;5017400;28;20898;-67
2021/10/16 14:04:25;;;;;;;6.10;4.70;;;;;;;;;;5034891;28;20407;-68
2021/10/16 14:06:52;;;;;;;5.97;5.20;;;;;;;;;;5035040;28;20427;-68
2021/10/16 14:09:18;;;;;;;8.80;4.50;;;;;;;;;;5048577;28;20902;-68
2021/10/16 14:11:44;;;;;;;6.43;5.47;;;;;;;;;;5055054;28;20397;-68
2021/10/16 14:14:10;;;;;;;6.33;4.40;;;;;;;;;;5054954;28;20455;-67
2021/10/16 14:16:36;;;;;;;6.30;4.77;;;;;;;;;;5054485;28;20453;-68
2021/10/16 14:19:02;;;;;;;6.67;4.70;;;;;;;;;;5054763;28;20393;-68
2021/10/16 14:21:28;;;;;;;5.60;4.80;;;;;;;;;;5054664;28;20401;-68
2021/10/16 14:23:54;;;;;;;6.40;4.93;;;;;;;;;;5054597;28;20422;-68
2021/10/16 14:26:20;;;;;;;6.00;4.60;;;;;;;;;;5054429;28;20492;-68
2021/10/16 14:28:46;;;;;;;5.70;4.60;;;;;;;;;;5054344;28;20446;-68
2021/10/16 14:31:12;;;;;;;6.97;5.87;;;;;;;;;;5054687;28;20754;-67